13:34
Airports
History
Links
Donate
Help keep this website running!
PayPal
Bitcoin
This page is community maintained. The information is intended for PC simulator navigation or reference.
Always use approved charts for navigation.
NJ81
Free Spirit
Free Spirit (NJ81)
Vineland, New Jersey, United States (8361)
4
Lat/Lng:39° 26' 32.42" N / 74° 56' 33.62" W
39.442338 / -74.942672
Elevation:85'ft / 26mMSL
ID / ICAO:NJ81
Runways:1
Longest:11-29
Grass 370m / 1,214ft
Nearby Weather12:54 GMT 2018-01-19
Nearby weather at KMIV, Millville Muni located 8.6 nautical miles from NJ81
Altimeter: 30.12
Visibility: 9.0 statute miles
Wind: 3 knots (from 230°)
Temp: -8°c / 18°f
Humidity: 92.5%

METAR: KMIV 191254Z AUTO 23003KT 9SM CLR M08/M09 A3012 RMK AO2 SLP198 T10781089

(Powered by phpweather)
Nearby VORs <50NM
Nearby NDBs
Runway 11 / 29
Dimensions:370.1 x 12.2m 1214' x 40'ft
Surface:Grass
Runway 11 [A]Runway 29 [B]
Heading:099°TH 279°TH
Lat:
Lng:
39° 26' 33.34"N
74° 56' 41.2"W
39° 26' 31.49"N
74° 56' 26.04"W
User Notes and Comments
39° 26' 32.42" N / 74° 56' 33.62" W
Distance To
Airport ID:
Nearby Airports
4 Als Landing Strip 5.8 NM
NJ96 N 352°
4 Vineland-downstown 6.8 NM
28N NNW 348°
4 Kroelinger 7.9 NM
29N NW 315°
(U) Millville Muni 8.6 NM
KMIV ( WX ) SW 233°
4 Rudys 10.2 NM
25N NW 319°
4 Piney Hollow Airfield 10.7 NM
80N N 11°
4 Folsom 12.1 NM
NJ52 NNE 31°
VFR Chart
Flight Planning at SkyVector.com